San Francisco, CA

7:32 PM PDT on September 28, 2016 (GMT -0700)
Collingwood Hill/Noe Valley-Castro | | Change Station

Elev 348 ft 37.76 °N, 122.44 °W | Updated 4 seconds ago

Partly Cloudy
Partly Cloudy
53.4 °F
Feels Like 53.4 °F
N
6.0
Wind Variable Wind from NE
Gusts 9.0 mph

Today
High -- | Low -- °F
--% Chance of Precip.
Yesterday
High -- | Low -- °F
Precip. -- in
Pressure 29.91 in
Visibility 10.0 miles
Clouds Few 600 ft
Dew Point 52 °F
Humidity 96%
Rainfall in
Snow Depth Not available.
7:03 AM 6:56 PM
Waning Crescent, 3% visible
METAR KSFO 290156Z 29019KT 10SM FEW006 14/11 A2991 RMK AO2 PK WND 28026/0123 SLP127 T01390111
Pressure 29.91 in
Visibility 10.0 miles
Clouds Few 600 ft
Dew Point 52 °F
Humidity 96%
Rainfall in
Snow Depth Not available.
7:03 AM 6:56 PM
Waning Crescent, 3% visible
METAR KSFO 290156Z 29019KT 10SM FEW006 14/11 A2991 RMK AO2 PK WND 28026/0123 SLP127 T01390111

10-Day Weather Forecast

Almanac

Astronomy

Sep. 28, 2016 Rise Set
Actual Time
Civil Twilight
Nautical Twilight
Astronomical Twilight
Moon
Length of Visible Light
Length of Day
Tomorrow will be .
, % of the Moon is Illuminated

Today's Extremes

State Highs State Lows

Community

WunderPhotos

Upload Photos

1,942,401 photos uploaded!

WunderBlog® & News

Nearby

Air Quality

  Air Quality AQ Index Pollutant
Not available.

Snow Depth

Station Depth Elevation

Earthquake Activity

City Distance Mag. Time & Date
Minimum magnitude displayed is 2.5.

Coastal Water Temperatures

Place Temperature

Stations

Nearby Weather Stations

Station Location Temp. Windchill Dew Point Humidity Wind Precip. Elev Updated Type
                   

Watches & Warnings

There are currently no watches in effect.